Time;durP1;ratioP1;P1;durP2;ratioP2;P2;SDS_P1;SDS_P2;PMS_P1;PMS_P2;Temp;Humidity;BMP_temperature;BMP_pressure;BME280_temperature;BME280_humidity;BME280_pressure;Samples;Min_cycle;Max_cycle;Signal;HPM_P1;HPM_P2
2023/10/05 00:02:05;;;;;;;0.30;0.30;;;18.80;64.80;;;;;;6132649;23;20494;-86
2023/10/05 00:04:40;;;;;;;0.50;0.40;;;18.80;64.80;;;;;;6135752;23;20204;-86
2023/10/05 00:07:10;;;;;;;1.80;0.50;;;18.80;64.70;;;;;;6136029;23;20142;-87
2023/10/05 00:09:43;;;;;;;1.45;0.50;;;18.80;64.70;;;;;;6133295;23;20150;-88
2023/10/05 00:12:18;;;;;;;1.38;0.43;;;18.80;64.70;;;;;;6130850;23;20471;-85
2023/10/05 00:14:54;;;;;;;0.43;0.40;;;18.80;64.70;;;;;;6133294;23;20180;-87
2023/10/05 00:17:22;;;;;;;0.40;0.40;;;18.80;64.70;;;;;;6159244;22;20131;-86
2023/10/05 00:19:52;;;;;;;0.40;0.40;;;18.70;64.70;;;;;;6181594;23;20193;-86
2023/10/05 00:22:20;;;;;;;1.55;0.60;;;18.80;64.80;;;;;;6130992;23;20190;-89
2023/10/05 00:24:51;;;;;;;0.93;0.50;;;18.80;64.80;;;;;;6132519;23;20470;-86
2023/10/05 00:27:19;;;;;;;0.50;0.40;;;18.80;64.90;;;;;;6181323;23;20127;-86
2023/10/05 00:29:47;;;;;;;0.82;0.50;;;18.80;65.10;;;;;;6133514;23;20586;-87
2023/10/05 00:32:15;;;;;;;1.17;0.55;;;18.70;65.00;;;;;;6132769;23;20583;-87
2023/10/05 00:34:52;;;;;;;0.38;0.38;;;18.80;65.20;;;;;;6132826;23;20470;-87
2023/10/05 00:37:19;;;;;;;0.47;0.47;;;18.80;64.90;;;;;;6181245;23;20135;-85
2023/10/05 00:39:49;;;;;;;0.68;0.43;;;18.70;65.00;;;;;;6156989;23;20147;-88
2023/10/05 00:42:16;;;;;;;0.85;0.57;;;18.70;65.20;;;;;;6133503;22;20167;-89
2023/10/05 00:44:47;;;;;;;0.47;0.40;;;18.70;65.30;;;;;;6156987;22;20227;-86
2023/10/05 00:47:16;;;;;;;0.63;0.50;;;18.70;65.20;;;;;;6131171;23;20155;-87
2023/10/05 00:52:24;;;;;;;0.50;0.30;;;18.70;65.20;;;;;;6181048;23;20600;-86
2023/10/05 00:54:52;;;;;;;0.40;0.40;;;18.70;65.20;;;;;;6157099;23;20135;-88
2023/10/05 00:57:24;;;;;;;0.75;0.40;;;18.70;66.10;;;;;;6157408;23;20143;-90
2023/10/05 01:02:45;;;;;;;0.40;0.40;;;18.70;65.30;;;;;;6183167;23;20171;-88
2023/10/05 01:05:17;;;;;;;0.50;0.50;;;18.70;65.50;;;;;;6174591;23;20209;-87
2023/10/05 01:07:43;;;;;;;0.40;0.40;;;18.70;65.50;;;;;;6128127;23;20139;-88
2023/10/05 01:12:45;;;;;;;0.80;0.50;;;18.70;65.70;;;;;;6128117;23;20158;-87
2023/10/05 01:15:18;;;;;;;1.33;0.60;;;18.70;65.80;;;;;;6103644;23;20147;-85
2023/10/05 01:17:44;;;;;;;0.45;0.38;;;18.70;65.70;;;;;;6127124;23;20204;-86
2023/10/05 01:20:22;;;;;;;0.47;0.45;;;18.70;65.60;;;;;;6102912;23;20563;-86
2023/10/05 01:22:57;;;;;;;0.70;0.50;;;18.70;65.70;;;;;;6058144;23;20195;-87
2023/10/05 01:25:25;;;;;;;0.30;0.30;;;18.70;65.50;;;;;;6080775;23;20197;-85
2023/10/05 01:27:53;;;;;;;0.70;0.40;;;18.70;65.50;;;;;;6102855;23;20144;-88
2023/10/05 01:30:19;;;;;;;0.50;0.50;;;18.70;65.70;;;;;;6126885;23;20132;-86
2023/10/05 01:32:49;;;;;;;0.75;0.60;;;18.70;65.60;;;;;;6102114;23;20179;-88
2023/10/05 01:35:23;;;;;;;1.48;0.50;;;18.70;65.70;;;;;;6053493;23;20243;-88
2023/10/05 01:37:52;;;;;;;0.40;0.40;;;18.70;65.80;;;;;;6078148;23;20482;-85
2023/10/05 01:42:56;;;;;;;1.15;0.50;;;18.70;65.90;;;;;;6128632;23;20250;-85
2023/10/05 01:45:25;;;;;;;0.60;0.40;;;18.70;65.80;;;;;;6102276;23;20151;-88
2023/10/05 01:47:51;;;;;;;0.43;0.40;;;18.70;65.90;;;;;;6102949;23;20586;-88
2023/10/05 01:50:20;;;;;;;0.30;0.30;;;18.70;65.80;;;;;;6126376;23;20140;-86
2023/10/05 01:52:55;;;;;;;0.70;0.40;;;18.70;65.80;;;;;;6101352;23;20178;-88
2023/10/05 01:55:22;;;;;;;0.55;0.55;;;18.60;65.80;;;;;;6103392;23;20462;-85
2023/10/05 01:57:51;;;;;;;0.60;0.40;;;18.60;65.80;;;;;;6101285;23;20148;-88
2023/10/05 02:00:19;;;;;;;0.98;0.50;;;18.70;66.00;;;;;;6053606;23;20235;-87
2023/10/05 02:02:46;;;;;;;1.10;0.60;;;18.70;65.90;;;;;;6103075;23;20502;-86
2023/10/05 02:05:14;;;;;;;0.47;0.47;;;18.70;65.90;;;;;;6131234;23;20485;-87
2023/10/05 02:07:41;;;;;;;0.45;0.40;;;18.60;66.00;;;;;;6156021;23;20208;-86
2023/10/05 02:10:10;;;;;;;0.63;0.40;;;18.70;66.00;;;;;;6131554;23;20147;-86
2023/10/05 02:12:36;;;;;;;0.55;0.50;;;18.60;66.00;;;;;;6157555;23;20197;-84
2023/10/05 02:15:16;;;;;;;0.70;0.50;;;18.60;66.00;;;;;;6157111;23;20528;-86
2023/10/05 02:17:49;;;;;;;0.50;0.40;;;18.60;66.00;;;;;;6208818;23;20155;-84
2023/10/05 02:20:38;;;;;;;0.93;0.50;;;18.60;66.10;;;;;;6132109;23;20180;-88
2023/10/05 02:23:15;;;;;;;0.63;0.50;;;18.70;66.10;;;;;;6161141;22;20678;-89
2023/10/05 02:25:42;;;;;;;0.50;0.50;;;18.60;66.00;;;;;;6181630;23;20139;-87
2023/10/05 02:28:23;;;;;;;0.55;0.40;;;18.60;66.10;;;;;;6132770;23;20229;-87
2023/10/05 02:30:59;;;;;;;0.40;0.40;;;18.70;66.10;;;;;;6135654;23;20522;-86
2023/10/05 02:33:30;;;;;;;0.47;0.45;;;18.60;66.10;;;;;;6086629;23;20151;-87
2023/10/05 02:36:09;;;;;;;0.52;0.52;;;18.60;66.20;;;;;;6157648;22;20151;-86
2023/10/05 02:38:39;;;;;;;0.52;0.50;;;18.60;66.20;;;;;;6160841;22;20147;-87
2023/10/05 02:41:06;;;;;;;0.70;0.52;;;18.70;66.20;;;;;;6132782;23;20147;-88
2023/10/05 02:43:39;;;;;;;1.05;0.40;;;18.60;67.10;;;;;;6132801;23;20146;-86
2023/10/05 02:46:10;;;;;;;0.50;0.50;;;18.60;66.30;;;;;;6181409;23;20168;-87
2023/10/05 02:48:43;;;;;;;0.30;0.30;;;18.60;66.30;;;;;;6134362;23;20155;-86
2023/10/05 02:51:11;;;;;;;0.65;0.40;;;18.60;66.40;;;;;;6156522;23;20170;-86
2023/10/05 02:53:41;;;;;;;0.80;0.50;;;18.50;66.30;;;;;;6179663;23;20127;-86
2023/10/05 02:56:28;;;;;;;0.57;0.45;;;18.60;66.30;;;;;;6156530;23;20523;-87
2023/10/05 02:58:56;;;;;;;0.40;0.40;;;18.50;66.40;;;;;;6108940;23;20653;-86
2023/10/05 03:01:23;;;;;;;0.50;0.30;;;18.60;66.40;;;;;;6155812;23;20159;-88
2023/10/05 03:03:51;;;;;;;0.40;0.40;;;18.60;66.50;;;;;;6130673;23;20276;-87
2023/10/05 03:06:17;;;;;;;0.95;0.45;;;18.60;66.60;;;;;;6131884;23;20535;-86
2023/10/05 03:08:49;;;;;;;0.68;0.30;;;18.60;66.50;;;;;;6131199;23;20143;-86
2023/10/05 03:11:18;;;;;;;0.77;0.47;;;18.50;66.50;;;;;;6131058;23;20189;-88
2023/10/05 03:13:46;;;;;;;0.40;0.40;;;18.60;66.50;;;;;;6207807;23;20470;-89
2023/10/05 03:16:17;;;;;;;0.90;0.50;;;18.60;66.50;;;;;;6156155;23;20478;-87
2023/10/05 03:18:48;;;;;;;0.40;0.40;;;18.60;66.50;;;;;;6130465;23;20605;-87
2023/10/05 03:21:17;;;;;;;0.85;0.50;;;18.60;66.50;;;;;;6131256;23;20241;-89
2023/10/05 03:23:45;;;;;;;0.30;0.30;;;18.60;66.50;;;;;;6131996;23;20242;-87
2023/10/05 03:26:13;;;;;;;0.55;0.30;;;18.50;66.50;;;;;;6155624;23;20206;-85
2023/10/05 03:28:41;;;;;;;0.50;0.50;;;18.60;66.60;;;;;;6131564;23;20165;-86
2023/10/05 03:31:30;;;;;;;0.60;0.35;;;18.60;66.60;;;;;;6156057;22;20134;-87
2023/10/05 03:33:58;;;;;;;0.68;0.52;;;18.60;66.60;;;;;;6157994;23;20150;-88
2023/10/05 03:36:26;;;;;;;0.50;0.50;;;18.60;66.70;;;;;;6130025;23;20155;-89
2023/10/05 03:38:56;;;;;;;0.57;0.40;;;18.60;66.70;;;;;;6180108;23;20154;-87
2023/10/05 03:41:26;;;;;;;0.35;0.30;;;18.60;66.80;;;;;;6156190;23;20606;-85
2023/10/05 03:43:55;;;;;;;0.47;0.45;;;18.50;66.70;;;;;;6258893;22;20520;-88
2023/10/05 03:46:25;;;;;;;0.90;0.50;;;18.50;66.70;;;;;;6155858;22;20513;-86
2023/10/05 03:48:59;;;;;;;0.98;0.47;;;18.50;66.90;;;;;;6130220;23;20181;-87
2023/10/05 03:51:29;;;;;;;0.40;0.40;;;18.50;66.90;;;;;;6156916;23;20171;-86
2023/10/05 03:53:56;;;;;;;0.40;0.40;;;18.50;66.90;;;;;;6232303;23;20151;-86
2023/10/05 03:56:27;;;;;;;0.40;0.40;;;18.50;66.80;;;;;;6155471;23;20166;-86
2023/10/05 03:58:53;;;;;;;0.32;0.32;;;18.50;66.90;;;;;;6207443;23;20147;-87
2023/10/05 04:01:22;;;;;;;0.88;0.40;;;18.50;66.90;;;;;;6155325;23;20170;-88
2023/10/05 04:03:49;;;;;;;0.75;0.45;;;18.50;66.90;;;;;;6179652;23;20195;-86
2023/10/05 04:06:18;;;;;;;1.63;0.40;;;18.50;66.90;;;;;;6155632;23;20575;-88
2023/10/05 04:08:46;;;;;;;0.30;0.30;;;18.60;66.90;;;;;;6155772;23;20196;-86
2023/10/05 04:11:12;;;;;;;0.40;0.40;;;18.50;66.90;;;;;;6131020;23;20154;-88
2023/10/05 04:13:38;;;;;;;0.60;0.45;;;18.50;67.00;;;;;;6131123;23;20199;-87
2023/10/05 04:16:09;;;;;;;1.05;0.50;;;18.50;67.00;;;;;;6155070;23;20353;-86
2023/10/05 04:18:35;;;;;;;0.40;0.40;;;18.50;67.00;;;;;;6180427;23;20123;-86
2023/10/05 04:21:01;;;;;;;0.40;0.40;;;18.50;67.00;;;;;;6155483;23;20151;-85
2023/10/05 04:23:28;;;;;;;0.50;0.40;;;18.50;67.00;;;;;;6130913;23;20158;-86
2023/10/05 04:25:56;;;;;;;0.70;0.43;;;18.50;67.00;;;;;;6155630;23;20630;-85
2023/10/05 04:28:51;;;;;;;0.45;0.45;;;18.50;67.10;;;;;;6181410;23;20124;-89
2023/10/05 04:31:13;;;;;;;0.43;0.40;;;18.50;67.10;;;;;;6179766;23;20624;-86
2023/10/05 04:33:42;;;;;;;0.32;0.30;;;18.50;67.10;;;;;;6131882;23;20485;-84
2023/10/05 04:36:10;;;;;;;0.30;0.30;;;18.50;67.10;;;;;;6155906;23;20347;-85
2023/10/05 04:38:36;;;;;;;0.32;0.32;;;18.50;67.20;;;;;;6130566;23;20154;-87
2023/10/05 04:41:03;;;;;;;0.88;0.52;;;18.50;67.20;;;;;;6155228;23;20133;-87
2023/10/05 04:43:30;;;;;;;0.65;0.43;;;18.40;67.20;;;;;;6155215;23;20150;-86
2023/10/05 04:45:56;;;;;;;0.82;0.45;;;18.50;67.20;;;;;;6130827;23;20143;-86
2023/10/05 04:48:30;;;;;;;0.52;0.40;;;18.50;67.30;;;;;;6130412;23;20155;-87
2023/10/05 04:51:01;;;;;;;0.55;0.40;;;18.50;67.40;;;;;;6131353;23;20154;-86
2023/10/05 04:53:27;;;;;;;1.00;0.40;;;18.50;67.40;;;;;;6129571;23;20170;-85
2023/10/05 04:56:10;;;;;;;0.70;0.40;;;18.50;67.40;;;;;;6155345;23;20142;-86
2023/10/05 04:59:00;;;;;;;0.45;0.43;;;18.40;67.30;;;;;;6159291;23;20128;-86
2023/10/05 05:01:29;;;;;;;0.70;0.40;;;18.50;67.40;;;;;;6179660;23;20218;-87
2023/10/05 05:03:56;;;;;;;0.43;0.40;;;18.50;67.50;;;;;;6133180;23;20198;-87
2023/10/05 05:06:25;;;;;;;0.93;0.47;;;18.40;67.40;;;;;;6130439;23;20204;-88
2023/10/05 05:08:53;;;;;;;1.02;0.50;;;18.40;67.40;;;;;;6132222;23;20139;-85
2023/10/05 05:11:19;;;;;;;0.40;0.40;;;18.50;67.50;;;;;;6155836;23;20149;-87
2023/10/05 05:13:46;;;;;;;0.63;0.40;;;18.50;67.60;;;;;;6131620;23;20151;-86
2023/10/05 05:16:14;;;;;;;0.75;0.47;;;18.40;67.50;;;;;;6131081;23;20482;-87
2023/10/05 05:18:42;;;;;;;0.77;0.45;;;18.50;67.60;;;;;;6156306;23;20142;-89
2023/10/05 05:21:08;;;;;;;0.75;0.40;;;18.50;67.60;;;;;;6131641;23;20170;-88
2023/10/05 05:23:35;;;;;;;0.40;0.40;;;18.40;67.60;;;;;;6180499;23;20161;-86
2023/10/05 05:26:03;;;;;;;0.52;0.50;;;18.40;67.50;;;;;;6155785;23;20155;-87
2023/10/05 05:28:31;;;;;;;0.93;0.60;;;18.50;67.60;;;;;;6131767;23;20147;-88
2023/10/05 05:31:13;;;;;;;0.65;0.40;;;18.40;67.60;;;;;;6180118;23;20139;-88
2023/10/05 05:33:41;;;;;;;0.98;0.60;;;18.40;67.70;;;;;;6180987;23;20126;-87
2023/10/05 05:36:08;;;;;;;0.40;0.40;;;18.40;67.60;;;;;;6158896;23;20143;-86
2023/10/05 05:38:35;;;;;;;0.38;0.30;;;18.40;67.70;;;;;;6135085;23;20284;-86
2023/10/05 05:41:10;;;;;;;0.55;0.38;;;18.50;67.80;;;;;;6183472;23;20150;-87
2023/10/05 05:43:35;;;;;;;0.55;0.40;;;18.50;67.40;;;;;;6158825;23;20234;-87
2023/10/05 05:46:02;;;;;;;0.52;0.30;;;18.50;67.00;;;;;;6158400;23;20131;-86
2023/10/05 05:48:31;;;;;;;0.80;0.40;;;18.50;66.60;;;;;;6185413;23;20520;-86
2023/10/05 05:51:10;;;;;;;0.40;0.32;;;18.50;66.40;;;;;;6135226;23;20146;-87
2023/10/05 05:53:37;;;;;;;1.10;0.50;;;18.50;66.20;;;;;;6134849;23;20158;-86
2023/10/05 05:56:04;;;;;;;0.60;0.30;;;18.60;66.20;;;;;;6158412;23;20221;-85
2023/10/05 05:58:29;;;;;;;0.65;0.40;;;18.50;66.00;;;;;;6156779;23;20162;-86
2023/10/05 06:00:57;;;;;;;0.32;0.32;;;18.50;65.80;;;;;;6179554;23;20131;-86
2023/10/05 06:03:24;;;;;;;0.32;0.32;;;18.50;65.70;;;;;;6179252;23;20191;-86
2023/10/05 06:05:51;;;;;;;0.47;0.30;;;18.50;65.40;;;;;;6179312;23;20135;-86
2023/10/05 06:08:16;;;;;;;1.00;0.30;;;18.50;65.40;;;;;;6154331;22;20147;-87
2023/10/05 06:10:46;;;;;;;0.40;0.30;;;18.50;65.10;;;;;;6178710;23;20154;-87
2023/10/05 06:13:11;;;;;;;0.30;0.30;;;18.50;65.00;;;;;;6180201;23;20590;-86
2023/10/05 06:15:38;;;;;;;0.68;0.40;;;18.50;64.80;;;;;;6129631;23;20147;-85
2023/10/05 06:18:05;;;;;;;0.32;0.30;;;18.50;64.70;;;;;;6179143;23;20132;-86
2023/10/05 06:20:32;;;;;;;0.40;0.35;;;18.50;64.50;;;;;;6154243;22;20547;-86
2023/10/05 06:22:58;;;;;;;0.80;0.50;;;18.50;64.40;;;;;;6231490;23;20186;-88
2023/10/05 06:25:25;;;;;;;0.40;0.30;;;18.60;64.40;;;;;;6153844;22;20200;-85
2023/10/05 06:27:51;;;;;;;0.60;0.40;;;18.50;64.20;;;;;;6156600;23;20123;-86
2023/10/05 06:30:17;;;;;;;0.60;0.30;;;18.50;64.10;;;;;;6179638;23;20547;-87
2023/10/05 06:32:44;;;;;;;1.23;0.30;;;18.50;64.30;;;;;;6153886;23;20158;-88
2023/10/05 06:35:12;;;;;;;0.30;0.30;;;18.50;64.10;;;;;;6178843;23;20139;-88
2023/10/05 06:37:39;;;;;;;0.50;0.30;;;18.50;64.00;;;;;;6128577;23;20158;-87
2023/10/05 06:40:13;;;;;;;0.30;0.30;;;18.60;63.90;;;;;;6178542;23;20165;-88
2023/10/05 06:42:41;;;;;;;0.40;0.40;;;18.60;63.80;;;;;;6132220;23;20622;-88
2023/10/05 06:45:08;;;;;;;0.88;0.40;;;18.60;63.70;;;;;;6130640;23;20149;-86
2023/10/05 06:47:36;;;;;;;0.55;0.30;;;18.60;63.70;;;;;;6180565;23;20577;-87
2023/10/05 06:50:08;;;;;;;0.80;0.40;;;18.60;63.50;;;;;;6131670;23;20143;-89
2023/10/05 06:52:36;;;;;;;0.50;0.30;;;18.60;63.40;;;;;;6132355;23;20147;-88
2023/10/05 06:55:07;;;;;;;0.43;0.40;;;18.60;63.50;;;;;;6155485;22;20136;-88
2023/10/05 06:57:37;;;;;;;1.55;0.30;;;18.60;63.50;;;;;;6179503;23;20127;-88
2023/10/05 07:00:11;;;;;;;0.20;0.20;;;18.60;63.40;;;;;;6233103;23;20165;-87
2023/10/05 07:02:39;;;;;;;0.47;0.38;;;18.60;63.40;;;;;;6133475;23;20193;-88
2023/10/05 07:05:06;;;;;;;0.40;0.30;;;18.70;63.20;;;;;;6129590;23;20162;-88
2023/10/05 07:07:35;;;;;;;0.30;0.30;;;18.60;63.00;;;;;;6155402;22;20124;-88
2023/10/05 07:10:03;;;;;;;0.45;0.30;;;18.60;62.90;;;;;;6154117;23;20131;-88
2023/10/05 07:12:31;;;;;;;1.30;0.40;;;18.60;62.80;;;;;;6154849;23;20218;-87
2023/10/05 07:14:58;;;;;;;0.40;0.40;;;18.70;62.80;;;;;;6179650;23;20551;-88
2023/10/05 07:17:26;;;;;;;0.68;0.43;;;18.70;62.60;;;;;;6154661;23;20151;-87
2023/10/05 07:19:52;;;;;;;0.30;0.30;;;18.70;62.40;;;;;;6155630;23;20143;-87
2023/10/05 07:22:18;;;;;;;0.82;0.30;;;18.70;62.50;;;;;;6155405;23;20186;-87
2023/10/05 07:24:44;;;;;;;0.40;0.30;;;18.70;62.50;;;;;;6131110;23;20478;-86
2023/10/05 07:27:10;;;;;;;0.60;0.30;;;18.70;62.50;;;;;;6131156;23;20142;-88
2023/10/05 07:29:36;;;;;;;0.70;0.22;;;18.60;62.30;;;;;;6155097;23;20154;-87
2023/10/05 07:32:04;;;;;;;0.60;0.40;;;18.60;62.20;;;;;;6179632;23;20444;-87
2023/10/05 07:34:30;;;;;;;0.55;0.30;;;18.70;62.20;;;;;;6155046;23;20143;-88
2023/10/05 07:36:57;;;;;;;0.70;0.40;;;18.70;62.10;;;;;;6155093;23;20159;-87
2023/10/05 07:39:23;;;;;;;0.52;0.30;;;18.60;62.00;;;;;;6155895;23;20128;-87
2023/10/05 07:41:50;;;;;;;0.85;0.43;;;18.60;62.00;;;;;;6155614;23;20246;-86
2023/10/05 07:44:17;;;;;;;0.45;0.30;;;18.60;62.10;;;;;;6180593;23;20173;-88
2023/10/05 07:46:43;;;;;;;1.55;0.30;;;18.60;62.10;;;;;;6155580;23;20177;-88
2023/10/05 07:49:09;;;;;;;0.38;0.30;;;18.60;62.10;;;;;;6181716;23;20143;-88
2023/10/05 07:51:35;;;;;;;0.93;0.50;;;18.50;62.20;;;;;;6131114;23;20566;-87
2023/10/05 07:54:01;;;;;;;0.30;0.30;;;18.60;62.10;;;;;;6131495;23;20196;-87
2023/10/05 07:56:32;;;;;;;0.30;0.20;;;18.50;62.00;;;;;;6160288;23;20135;-86
2023/10/05 07:58:58;;;;;;;0.40;0.30;;;18.60;61.90;;;;;;6184758;23;20154;-87
2023/10/05 08:01:25;;;;;;;0.40;0.28;;;18.50;61.90;;;;;;6135843;23;20146;-88
2023/10/05 08:03:51;;;;;;;0.45;0.32;;;18.60;61.80;;;;;;6156064;23;20198;-87
2023/10/05 08:06:17;;;;;;;0.57;0.40;;;18.60;61.90;;;;;;6131150;23;20173;-88
2023/10/05 08:08:44;;;;;;;0.20;0.20;;;18.60;61.80;;;;;;6131292;23;20486;-87
2023/10/05 08:11:15;;;;;;;0.50;0.30;;;18.60;61.80;;;;;;6180656;23;20162;-88
2023/10/05 08:13:45;;;;;;;0.40;0.30;;;18.60;61.80;;;;;;6156553;23;20138;-88
2023/10/05 08:16:12;;;;;;;0.30;0.25;;;18.60;61.70;;;;;;6131830;23;20151;-88
2023/10/05 08:18:38;;;;;;;0.30;0.30;;;18.60;61.50;;;;;;6160705;22;20225;-87
2023/10/05 08:21:07;;;;;;;0.82;0.38;;;18.70;61.50;;;;;;6159592;23;20142;-88
2023/10/05 08:23:33;;;;;;;0.30;0.30;;;18.60;61.40;;;;;;6161678;23;20179;-87
2023/10/05 08:25:59;;;;;;;0.35;0.35;;;18.60;61.40;;;;;;6160564;23;20147;-87
2023/10/05 08:28:25;;;;;;;0.45;0.30;;;18.60;61.60;;;;;;6162845;22;20477;-87
2023/10/05 08:31:07;;;;;;;0.30;0.30;;;18.60;61.60;;;;;;6161711;23;20230;-88
2023/10/05 08:33:34;;;;;;;0.40;0.40;;;18.60;61.50;;;;;;6143073;23;20158;-87
2023/10/05 08:36:06;;;;;;;0.35;0.30;;;18.70;61.40;;;;;;6186597;23;20142;-88
2023/10/05 08:38:34;;;;;;;0.28;0.25;;;18.60;61.30;;;;;;6253702;22;20157;-87
2023/10/05 08:41:02;;;;;;;0.38;0.28;;;18.70;61.30;;;;;;6204859;22;20230;-87
2023/10/05 08:43:28;;;;;;;0.38;0.30;;;18.70;61.30;;;;;;6229132;22;20216;-87
2023/10/05 08:45:53;;;;;;;0.30;0.30;;;18.70;61.30;;;;;;6229967;22;20140;-87
2023/10/05 08:48:28;;;;;;;0.47;0.30;;;18.70;61.30;;;;;;6202385;22;20187;-86
2023/10/05 08:50:57;;;;;;;0.77;0.30;;;18.70;61.30;;;;;;6230751;22;20132;-87
2023/10/05 08:53:22;;;;;;;0.70;0.40;;;18.70;61.30;;;;;;6200942;22;20192;-87
2023/10/05 08:55:49;;;;;;;0.30;0.30;;;18.60;61.20;;;;;;6228251;22;20138;-87
2023/10/05 08:58:18;;;;;;;0.30;0.30;;;18.70;61.40;;;;;;6226047;22;20239;-85
2023/10/05 09:00:45;;;;;;;0.70;0.40;;;18.70;61.30;;;;;;6229136;22;20583;-87
2023/10/05 09:03:29;;;;;;;0.30;0.28;;;18.70;61.30;;;;;;6202219;22;20829;-88
2023/10/05 09:06:13;;;;;;;1.27;0.35;;;18.70;61.40;;;;;;6254554;22;20478;-87
2023/10/05 09:08:43;;;;;;;0.93;0.38;;;18.70;61.50;;;;;;6190901;23;20182;-87
2023/10/05 09:11:09;;;;;;;0.40;0.30;;;18.70;61.60;;;;;;6157885;23;20219;-86
2023/10/05 09:13:47;;;;;;;1.70;0.40;;;18.60;61.60;;;;;;6181679;23;20165;-88
2023/10/05 09:16:30;;;;;;;0.28;0.20;;;18.60;61.60;;;;;;6156596;23;20196;-87
2023/10/05 09:18:57;;;;;;;0.73;0.40;;;18.60;61.60;;;;;;6133222;23;20147;-88
2023/10/05 09:21:42;;;;;;;0.60;0.30;;;18.60;61.40;;;;;;6180851;23;20150;-87
2023/10/05 09:24:26;;;;;;;0.30;0.30;;;18.70;61.30;;;;;;6181490;23;20154;-87
2023/10/05 09:26:54;;;;;;;0.55;0.35;;;18.70;61.20;;;;;;6131554;23;20146;-87
2023/10/05 09:29:21;;;;;;;0.35;0.30;;;18.70;61.00;;;;;;6131385;23;20138;-87
2023/10/05 09:31:53;;;;;;;1.23;0.38;;;18.70;61.00;;;;;;6130250;23;20623;-88
2023/10/05 09:34:36;;;;;;;0.40;0.30;;;18.70;60.90;;;;;;6205772;23;20207;-87
2023/10/05 09:37:05;;;;;;;0.30;0.30;;;18.70;60.80;;;;;;6259186;22;20155;-87
2023/10/05 09:39:43;;;;;;;0.40;0.30;;;18.70;60.80;;;;;;6130770;23;20143;-88
2023/10/05 09:42:27;;;;;;;0.38;0.20;;;18.70;60.70;;;;;;6131818;23;20699;-88
2023/10/05 09:44:57;;;;;;;1.10;0.30;;;18.70;60.70;;;;;;6179936;23;20139;-89
2023/10/05 09:47:32;;;;;;;0.75;0.25;;;18.70;60.70;;;;;;6155754;23;20935;-88
2023/10/05 09:50:00;;;;;;;0.73;0.30;;;18.70;60.50;;;;;;6133851;23;20221;-87
2023/10/05 09:52:34;;;;;;;0.20;0.20;;;18.70;61.40;;;;;;6154999;23;20146;-87
2023/10/05 09:55:02;;;;;;;0.50;0.30;;;18.70;60.50;;;;;;6157453;22;20229;-88
2023/10/05 09:57:28;;;;;;;1.52;0.30;;;18.70;60.40;;;;;;6132146;23;20144;-88
2023/10/05 10:00:08;;;;;;;0.40;0.35;;;18.60;60.10;;;;;;6155661;23;20223;-86
2023/10/05 10:02:34;;;;;;;0.70;0.30;;;18.70;60.00;;;;;;6137287;23;20571;-87
2023/10/05 10:05:25;;;;;;;4.07;0.80;;;18.70;60.00;;;;;;6183062;23;20214;-88
2023/10/05 10:07:54;;;;;;;0.60;0.30;;;18.70;60.10;;;;;;6163248;23;20137;-87
2023/10/05 10:10:20;;;;;;;1.75;0.70;;;18.70;59.90;;;;;;6182118;23;20131;-87
2023/10/05 10:12:51;;;;;;;0.68;0.40;;;18.80;59.90;;;;;;6184345;23;20135;-86
2023/10/05 10:15:33;;;;;;;0.60;0.40;;;18.70;59.80;;;;;;6133402;23;20154;-87
2023/10/05 10:18:06;;;;;;;0.30;0.20;;;18.70;59.80;;;;;;6180482;23;20135;-87
2023/10/05 10:20:35;;;;;;;0.20;0.20;;;18.70;59.80;;;;;;6159015;23;20166;-87
2023/10/05 10:23:08;;;;;;;0.43;0.30;;;18.70;59.50;;;;;;6133332;23;20189;-86
2023/10/05 10:25:42;;;;;;;0.32;0.30;;;18.70;59.50;;;;;;6155918;23;20559;-86
2023/10/05 10:28:15;;;;;;;0.50;0.30;;;18.70;59.40;;;;;;6132828;23;20280;-88
2023/10/05 10:30:47;;;;;;;0.30;0.30;;;18.70;59.40;;;;;;6180865;23;20132;-88
2023/10/05 10:33:24;;;;;;;0.63;0.50;;;18.70;59.30;;;;;;6134409;23;20603;-86
2023/10/05 10:35:51;;;;;;;0.60;0.40;;;18.70;59.30;;;;;;6158006;23;20899;-85
2023/10/05 10:38:18;;;;;;;2.45;0.50;;;18.70;59.20;;;;;;6182434;23;20586;-86
2023/10/05 10:40:53;;;;;;;0.90;0.30;;;18.70;59.20;;;;;;6158424;22;20145;-87
2023/10/05 10:43:20;;;;;;;0.90;0.50;;;18.70;59.10;;;;;;6182023;23;20867;-86
2023/10/05 10:45:46;;;;;;;1.58;0.52;;;18.70;59.00;;;;;;6157775;23;20155;-85
2023/10/05 10:50:53;;;;;;;0.63;0.30;;;18.70;58.80;;;;;;6161455;23;20532;-86
2023/10/05 10:53:19;;;;;;;0.55;0.40;;;18.70;58.90;;;;;;6157206;23;20226;-86
2023/10/05 10:55:48;;;;;;;1.17;0.43;;;18.70;58.80;;;;;;6135764;22;20142;-86
2023/10/05 10:58:16;;;;;;;0.50;0.50;;;18.70;58.70;;;;;;6137057;23;20150;-86
2023/10/05 11:03:44;;;;;;;0.70;0.50;;;18.70;58.50;;;;;;6164338;23;20251;-85
2023/10/05 11:06:11;;;;;;;1.05;0.40;;;18.70;58.50;;;;;;6136243;23;20161;-85
2023/10/05 11:08:40;;;;;;;0.50;0.40;;;18.70;58.20;;;;;;6160612;23;20145;-87
2023/10/05 11:11:09;;;;;;;1.50;0.60;;;18.70;58.30;;;;;;6160007;23;20237;-86
2023/10/05 11:13:55;;;;;;;0.45;0.38;;;18.80;58.30;;;;;;6160806;23;20130;-86
2023/10/05 11:16:21;;;;;;;0.88;0.43;;;18.70;58.30;;;;;;6164104;23;20142;-86
2023/10/05 11:18:57;;;;;;;1.58;0.50;;;18.70;58.30;;;;;;6137406;23;20200;-85
2023/10/05 11:21:25;;;;;;;0.40;0.40;;;18.70;58.20;;;;;;6166651;23;20173;-85
2023/10/05 11:24:06;;;;;;;0.50;0.40;;;18.70;58.10;;;;;;6163346;23;20182;-85
2023/10/05 11:26:33;;;;;;;0.50;0.40;;;18.60;58.00;;;;;;6139440;23;20142;-86
2023/10/05 11:29:07;;;;;;;1.35;0.43;;;18.70;58.00;;;;;;6135609;23;20151;-86
2023/10/05 11:31:34;;;;;;;0.90;0.40;;;18.70;58.00;;;;;;6159560;23;20169;-83
2023/10/05 11:34:04;;;;;;;1.95;0.50;;;18.70;58.00;;;;;;6159664;23;20903;-84
2023/10/05 11:36:33;;;;;;;0.50;0.40;;;18.70;58.00;;;;;;6184186;23;20139;-83
2023/10/05 11:39:21;;;;;;;0.80;0.47;;;18.70;58.00;;;;;;6135045;23;20229;-85
2023/10/05 11:41:56;;;;;;;1.02;0.60;;;18.60;57.80;;;;;;6106309;23;20183;-84
2023/10/05 11:44:25;;;;;;;0.98;0.57;;;18.70;57.90;;;;;;6155307;23;20196;-84
2023/10/05 11:46:53;;;;;;;1.33;0.60;;;18.70;58.40;;;;;;6104025;23;20154;-85
2023/10/05 11:49:30;;;;;;;0.95;0.60;;;18.80;57.70;;;;;;6126915;23;20136;-84
2023/10/05 11:52:15;;;;;;;1.60;0.55;;;18.80;57.70;;;;;;6127677;23;20216;-84
2023/10/05 11:55:27;;;;;;;0.52;0.40;;;18.80;57.50;;;;;;6096267;23;20149;-84
2023/10/05 11:58:40;;;;;;;2.78;0.52;;;18.90;57.50;;;;;;6106168;23;20275;-84
2023/10/05 12:01:56;;;;;;;;;;;;;;;;;;;;;
2023/10/05 12:04:25;;;;;;;1.35;0.60;;;18.80;57.30;;;;;;5977550;23;20254;-84
2023/10/05 12:06:58;;;;;;;1.17;0.47;;;18.80;57.20;;;;;;5938419;24;20155;-83
2023/10/05 12:09:28;;;;;;;0.73;0.50;;;18.80;57.20;;;;;;5960845;24;20209;-84
2023/10/05 12:12:13;;;;;;;1.25;0.50;;;18.80;57.30;;;;;;5961270;24;20164;-85
2023/10/05 12:14:41;;;;;;;0.93;0.50;;;18.80;57.50;;;;;;5986279;23;20162;-84
2023/10/05 12:17:07;;;;;;;2.13;0.55;;;18.90;57.30;;;;;;5962735;24;20152;-85
2023/10/05 12:19:33;;;;;;;0.85;0.50;;;18.90;57.10;;;;;;5940378;24;20165;-84
2023/10/05 12:22:02;;;;;;;0.93;0.50;;;18.90;57.10;;;;;;5962015;24;20203;-84
2023/10/05 12:24:30;;;;;;;1.02;0.45;;;18.90;57.00;;;;;;5934530;23;20152;-84
2023/10/05 12:26:59;;;;;;;1.42;0.63;;;18.80;57.00;;;;;;6082816;23;20154;-85
2023/10/05 12:29:26;;;;;;;0.50;0.38;;;18.90;57.00;;;;;;6008239;23;20153;-84
2023/10/05 12:31:53;;;;;;;0.68;0.47;;;18.90;56.90;;;;;;6081045;23;20147;-84
2023/10/05 12:34:23;;;;;;;0.50;0.40;;;18.80;56.70;;;;;;6132048;23;20143;-85
2023/10/05 12:36:49;;;;;;;0.55;0.50;;;18.80;56.60;;;;;;6108575;23;20156;-84
2023/10/05 12:39:17;;;;;;;1.58;0.50;;;18.80;56.60;;;;;;6107151;23;20131;-85
2023/10/05 12:41:46;;;;;;;3.05;0.50;;;18.80;56.60;;;;;;6107812;23;20235;-85
2023/10/05 12:44:13;;;;;;;1.25;0.73;;;18.90;56.70;;;;;;6034633;23;20590;-86
2023/10/05 12:46:40;;;;;;;0.85;0.50;;;18.80;56.70;;;;;;6105907;23;20238;-85
2023/10/05 12:49:08;;;;;;;0.52;0.40;;;18.80;56.60;;;;;;6107321;23;20143;-86
2023/10/05 12:51:36;;;;;;;2.60;0.75;;;18.80;56.50;;;;;;6131440;23;20127;-85
2023/10/05 12:54:18;;;;;;;2.28;0.57;;;18.80;56.60;;;;;;6130199;23;20131;-86
2023/10/05 12:56:46;;;;;;;0.52;0.47;;;18.90;56.60;;;;;;6086873;23;20151;-86
2023/10/05 12:59:12;;;;;;;1.40;0.60;;;18.80;56.70;;;;;;6107363;23;20146;-86
2023/10/05 13:01:41;;;;;;;1.50;0.60;;;18.90;56.70;;;;;;6106755;23;20168;-86
2023/10/05 13:04:09;;;;;;;0.82;0.40;;;18.90;56.60;;;;;;6137377;22;20240;-86
2023/10/05 13:06:39;;;;;;;1.30;0.57;;;18.90;56.60;;;;;;6137158;23;20147;-86
2023/10/05 13:09:11;;;;;;;2.30;0.60;;;18.80;56.60;;;;;;6161660;23;20467;-85
2023/10/05 13:11:39;;;;;;;1.15;0.60;;;18.80;56.60;;;;;;6159730;23;20457;-86
2023/10/05 13:14:08;;;;;;;4.88;0.70;;;18.80;56.40;;;;;;6185775;23;20127;-86
2023/10/05 13:16:36;;;;;;;1.67;0.55;;;18.80;56.40;;;;;;6185441;23;20131;-86
2023/10/05 13:19:06;;;;;;;1.13;0.40;;;18.80;56.20;;;;;;6184089;23;20135;-86
2023/10/05 13:21:35;;;;;;;0.57;0.50;;;18.80;56.20;;;;;;6137261;23;20151;-86